createdAt,value
2019-02-12T00:01:08.075Z,2.87
2019-02-12T00:03:12.993Z,2.47
2019-02-12T00:05:17.789Z,2.43
2019-02-12T00:07:22.550Z,2.83
2019-02-12T00:09:27.522Z,2.93
2019-02-12T00:11:33.318Z,2.47
2019-02-12T00:13:38.148Z,2.73
2019-02-12T00:15:42.957Z,3.00
2019-02-12T00:17:47.655Z,2.30
2019-02-12T00:19:52.506Z,2.77
2019-02-12T00:21:57.256Z,3.00
2019-02-12T00:24:01.978Z,2.70
2019-02-12T00:26:06.794Z,2.60
2019-02-12T00:28:11.577Z,2.67
2019-02-12T00:30:16.346Z,3.10
2019-02-12T00:32:21.190Z,2.23
2019-02-12T00:34:25.878Z,2.73
2019-02-12T00:36:30.649Z,2.63
2019-02-12T00:38:35.449Z,2.77
2019-02-12T00:40:40.308Z,2.83
2019-02-12T00:42:45.001Z,2.70
2019-02-12T00:44:49.736Z,2.60
2019-02-12T00:46:54.577Z,2.80
2019-02-12T00:48:59.368Z,2.50
2019-02-12T00:51:04.088Z,2.20
2019-02-12T00:53:08.860Z,2.40
2019-02-12T00:55:13.561Z,2.50
2019-02-12T00:57:18.344Z,2.60
2019-02-12T00:59:23.077Z,2.73
2019-02-12T01:01:27.962Z,2.70
2019-02-12T01:03:32.809Z,2.70
2019-02-12T01:05:37.568Z,2.20
2019-02-12T01:07:42.376Z,2.50
2019-02-12T01:09:47.178Z,2.40
2019-02-12T01:11:52.028Z,2.80
2019-02-12T01:13:56.872Z,2.60
2019-02-12T01:16:01.686Z,2.30
2019-02-12T01:18:06.502Z,2.50
2019-02-12T01:20:12.327Z,2.30
2019-02-12T01:22:18.196Z,2.50
2019-02-12T01:24:23.101Z,2.60
2019-02-12T01:26:27.889Z,2.33
2019-02-12T01:28:32.695Z,2.40
2019-02-12T01:30:37.417Z,2.20
2019-02-12T01:32:44.829Z,2.30
2019-02-12T01:34:49.496Z,2.50
2019-02-12T01:36:54.296Z,2.50
2019-02-12T01:38:59.029Z,1.97
2019-02-12T01:41:03.689Z,2.40
2019-02-12T01:43:08.411Z,2.60
2019-02-12T01:45:13.634Z,2.63
2019-02-12T01:47:18.589Z,2.20
2019-02-12T01:49:23.639Z,2.73
2019-02-12T01:51:34.905Z,2.10
2019-02-12T01:53:34.806Z,2.10
2019-02-12T01:55:39.757Z,2.00
2019-02-12T01:57:44.558Z,2.70
2019-02-12T01:59:49.308Z,2.40
2019-02-12T02:01:53.969Z,2.50
2019-02-12T02:03:58.793Z,2.23
2019-02-12T02:06:03.683Z,2.10
2019-02-12T02:08:09.453Z,2.00
2019-02-12T02:10:16.624Z,2.93
2019-02-12T02:12:21.396Z,2.50
2019-02-12T02:14:26.325Z,2.00
2019-02-12T02:16:31.282Z,2.10
2019-02-12T02:18:36.045Z,2.13
2019-02-12T02:20:40.789Z,2.03
2019-02-12T02:22:45.568Z,2.10
2019-02-12T02:24:50.284Z,2.77
2019-02-12T02:26:55.010Z,2.13
2019-02-12T02:29:00.702Z,2.00
2019-02-12T02:31:05.419Z,2.53
2019-02-12T02:33:10.167Z,2.23
2019-02-12T02:35:15.009Z,2.20
2019-02-12T02:37:20.720Z,2.00
2019-02-12T02:39:25.478Z,1.97
2019-02-12T02:41:30.180Z,2.33
2019-02-12T02:43:34.863Z,2.53
2019-02-12T02:45:39.677Z,2.40
2019-02-12T02:47:44.413Z,2.60
2019-02-12T02:49:49.090Z,2.53
2019-02-12T02:51:55.912Z,3.00
2019-02-12T02:54:00.733Z,2.10
2019-02-12T02:56:05.575Z,2.40
2019-02-12T02:58:11.395Z,2.37
2019-02-12T03:00:16.305Z,2.83
2019-02-12T03:02:21.036Z,2.20
2019-02-12T03:04:26.003Z,2.80
2019-02-12T03:06:30.878Z,2.03
2019-02-12T03:08:35.629Z,2.40
2019-02-12T03:10:40.474Z,1.90
2019-02-12T03:12:45.923Z,2.27
2019-02-12T03:14:50.921Z,2.40
2019-02-12T03:16:55.613Z,2.47
2019-02-12T03:19:00.510Z,2.30
2019-02-12T03:21:05.196Z,1.90
2019-02-12T03:23:09.942Z,2.10
2019-02-12T03:25:14.722Z,2.00
2019-02-12T03:27:19.560Z,2.10
2019-02-12T03:29:24.331Z,2.00
2019-02-12T03:31:29.093Z,2.20
2019-02-12T03:33:33.816Z,2.10
2019-02-12T03:35:38.578Z,1.83
2019-02-12T03:37:43.402Z,1.80
2019-02-12T03:39:48.178Z,2.20
2019-02-12T03:41:52.931Z,1.87
2019-02-12T03:43:57.822Z,2.10
2019-02-12T03:46:02.631Z,2.50
2019-02-12T03:48:07.438Z,2.33
2019-02-12T03:50:12.426Z,2.17
2019-02-12T03:52:17.230Z,1.90
2019-02-12T03:54:21.931Z,1.90
2019-02-12T03:56:26.777Z,2.13
2019-02-12T03:58:31.537Z,2.30
2019-02-12T04:00:36.205Z,2.10
2019-02-12T04:03:00.643Z,2.60
2019-02-12T04:05:07.967Z,2.43
2019-02-12T04:07:12.760Z,2.50
2019-02-12T04:09:17.820Z,1.93
2019-02-12T04:11:24.362Z,2.10
2019-02-12T04:13:29.402Z,2.10
2019-02-12T04:15:34.353Z,2.23
2019-02-12T04:17:39.112Z,2.33
2019-02-12T04:19:44.003Z,2.50
2019-02-12T04:21:48.700Z,2.33
2019-02-12T04:23:53.452Z,2.30
2019-02-12T04:25:58.192Z,1.90
2019-02-12T04:28:03.920Z,1.87
2019-02-12T04:30:08.920Z,1.90
2019-02-12T04:32:13.623Z,1.93
2019-02-12T04:34:18.421Z,1.70
2019-02-12T04:36:23.305Z,1.80
2019-02-12T04:38:28.100Z,1.60
2019-02-12T04:40:32.984Z,1.77
2019-02-12T04:42:37.740Z,1.60
2019-02-12T04:44:42.481Z,1.60
2019-02-12T04:46:47.203Z,1.97
2019-02-12T04:48:51.877Z,1.60
2019-02-12T04:50:56.721Z,1.70
2019-02-12T04:53:01.440Z,1.53
2019-02-12T04:55:07.258Z,1.87
2019-02-12T04:57:12.024Z,1.87
2019-02-12T04:59:16.780Z,1.73
2019-02-12T05:01:21.523Z,1.70
2019-02-12T05:03:26.451Z,1.50
2019-02-12T05:05:31.318Z,1.87
2019-02-12T05:07:37.934Z,1.90
2019-02-12T05:09:44.027Z,1.90
2019-02-12T05:11:51.669Z,1.70
2019-02-12T05:13:56.534Z,1.50
2019-02-12T05:16:01.466Z,2.10
2019-02-12T05:18:06.398Z,1.83
2019-02-12T05:20:12.438Z,2.17
2019-02-12T05:22:17.269Z,2.10
2019-02-12T05:24:22.045Z,1.93
2019-02-12T05:26:26.815Z,2.03
2019-02-12T05:28:31.610Z,1.73
2019-02-12T05:30:36.471Z,1.80
2019-02-12T05:32:41.295Z,1.70
2019-02-12T05:34:47.080Z,1.90
2019-02-12T05:36:51.952Z,1.80
2019-02-12T05:38:56.678Z,1.77
2019-02-12T05:41:01.453Z,1.80
2019-02-12T05:43:06.214Z,1.60
2019-02-12T05:45:11.314Z,1.83
2019-02-12T05:47:16.102Z,1.60
2019-02-12T05:49:20.989Z,1.93
2019-02-12T05:51:25.923Z,1.80
2019-02-12T05:53:30.898Z,2.03
2019-02-12T05:55:35.737Z,1.90
2019-02-12T05:57:40.498Z,1.70
2019-02-12T05:59:47.133Z,1.83
2019-02-12T06:01:51.866Z,1.70
2019-02-12T06:03:56.591Z,1.80
2019-02-12T06:06:01.519Z,1.80
2019-02-12T06:08:06.424Z,1.60
2019-02-12T06:10:11.558Z,1.73
2019-02-12T06:12:17.303Z,1.60
2019-02-12T06:14:22.238Z,1.63
2019-02-12T06:16:27.098Z,1.50
2019-02-12T06:18:31.871Z,1.70
2019-02-12T06:20:36.700Z,1.60
2019-02-12T06:22:41.479Z,1.83
2019-02-12T06:24:46.428Z,1.70
2019-02-12T06:26:52.253Z,1.73
2019-02-12T06:28:57.150Z,1.90
2019-02-12T06:31:02.109Z,1.77
2019-02-12T06:33:07.897Z,1.70
2019-02-12T06:35:12.829Z,1.90
2019-02-12T06:37:17.690Z,1.70
2019-02-12T06:39:22.580Z,1.80
2019-02-12T06:41:27.379Z,1.67
2019-02-12T06:43:32.195Z,1.87
2019-02-12T06:45:37.386Z,1.70
2019-02-12T06:47:43.749Z,1.80
2019-02-12T06:49:48.704Z,1.70
2019-02-12T06:51:53.543Z,1.97
2019-02-12T06:53:58.368Z,2.00
2019-02-12T06:56:03.099Z,2.10
2019-02-12T06:58:07.937Z,1.90
2019-02-12T07:00:12.840Z,2.50
2019-02-12T07:02:56.233Z,2.50
2019-02-12T07:05:02.903Z,2.60
2019-02-12T07:07:41.528Z,2.40
2019-02-12T07:09:50.031Z,2.20
2019-02-12T07:12:28.200Z,2.60
2019-02-12T07:14:59.712Z,2.87
2019-02-12T07:17:37.772Z,2.63
2019-02-12T07:20:08.581Z,2.70
2019-02-12T07:22:39.779Z,2.90
2019-02-12T07:25:06.588Z,3.40
2019-02-12T07:27:41.975Z,3.20
2019-02-12T07:30:25.400Z,3.07
2019-02-12T07:32:38.083Z,2.80
2019-02-12T07:34:58.734Z,2.60
2019-02-12T07:37:28.931Z,2.93
2019-02-12T07:39:58.984Z,3.20
2019-02-12T07:42:31.420Z,3.47
2019-02-12T07:45:15.339Z,3.40
2019-02-12T07:47:38.653Z,3.40
2019-02-12T07:49:59.804Z,3.63
2019-02-12T07:52:33.534Z,3.60
2019-02-12T07:55:17.108Z,3.80
2019-02-12T07:57:50.625Z,3.90
2019-02-12T08:00:18.776Z,3.07
2019-02-12T08:02:49.047Z,3.77
2019-02-12T08:05:25.478Z,3.50
2019-02-12T08:08:09.026Z,3.10
2019-02-12T08:10:41.424Z,3.47
2019-02-12T08:13:15.669Z,3.20
2019-02-12T08:15:37.155Z,3.57
2019-02-12T08:17:58.673Z,3.63
2019-02-12T08:20:41.993Z,3.40
2019-02-12T08:23:17.708Z,3.47
2019-02-12T08:25:40.653Z,3.33
2019-02-12T08:27:54.334Z,3.27
2019-02-12T08:30:37.688Z,3.43
2019-02-12T08:32:57.803Z,3.67
2019-02-12T08:35:32.532Z,3.40
2019-02-12T08:37:45.790Z,3.20
2019-02-12T08:40:15.838Z,3.40
2019-02-12T08:42:49.472Z,3.03
2019-02-12T08:45:21.377Z,3.77
2019-02-12T08:47:55.552Z,3.40
2019-02-12T08:50:23.359Z,3.40
2019-02-12T08:52:53.684Z,3.37
2019-02-12T08:55:10.683Z,3.37
2019-02-12T08:57:42.799Z,3.30
2019-02-12T09:00:26.101Z,3.60
2019-02-12T09:03:00.343Z,3.23
2019-02-12T09:05:43.855Z,3.33
2019-02-12T09:08:12.871Z,3.23
2019-02-12T09:10:56.209Z,3.27
2019-02-12T09:13:14.982Z,3.07
2019-02-12T09:15:44.310Z,2.90
2019-02-12T09:18:03.975Z,3.20
2019-02-12T09:20:47.353Z,3.30
2019-02-12T09:23:30.519Z,2.80
2019-02-12T09:26:04.257Z,3.50
2019-02-12T09:28:41.483Z,3.27
2019-02-12T09:31:24.719Z,2.70
2019-02-12T09:34:08.309Z,2.97
2019-02-12T09:36:29.901Z,2.60
2019-02-12T09:39:06.201Z,3.30
2019-02-12T09:41:25.344Z,3.10
2019-02-12T09:44:02.936Z,3.10
2019-02-12T09:46:33.173Z,3.00
2019-02-12T09:49:16.612Z,2.63
2019-02-12T09:51:33.076Z,2.50
2019-02-12T09:54:09.076Z,2.97
2019-02-12T09:56:29.492Z,3.70
2019-02-12T09:59:07.525Z,2.97
2019-02-12T10:01:19.033Z,2.67
2019-02-12T10:04:02.565Z,2.63
2019-02-12T10:06:40.312Z,2.77
2019-02-12T10:09:08.171Z,2.83
2019-02-12T10:11:26.733Z,2.87
2019-02-12T10:13:57.217Z,2.50
2019-02-12T10:16:32.071Z,2.73
2019-02-12T10:19:15.369Z,2.37
2019-02-12T10:21:58.679Z,2.80
2019-02-12T10:24:31.875Z,2.80
2019-02-12T10:26:37.639Z,2.70
2019-02-12T10:29:15.836Z,2.70
2019-02-12T10:31:29.594Z,3.00
2019-02-12T10:33:34.448Z,2.70
2019-02-12T10:35:40.452Z,2.77
2019-02-12T10:37:45.185Z,2.90
2019-02-12T10:39:49.988Z,2.60
2019-02-12T10:41:54.774Z,3.20
2019-02-12T10:43:59.953Z,2.80
2019-02-12T10:46:04.742Z,2.60
2019-02-12T10:48:10.632Z,2.83
2019-02-12T10:50:15.375Z,2.70
2019-02-12T10:52:20.386Z,2.70
2019-02-12T10:54:28.148Z,2.57
2019-02-12T10:56:32.533Z,2.80
2019-02-12T10:58:37.352Z,2.87
2019-02-12T11:00:42.218Z,2.83
2019-02-12T11:02:47.108Z,3.23
2019-02-12T11:04:51.874Z,2.53
2019-02-12T11:06:56.661Z,2.77
2019-02-12T11:09:01.497Z,2.33
2019-02-12T11:11:06.602Z,2.40
2019-02-12T11:13:11.600Z,2.97
2019-02-12T11:15:16.339Z,2.63
2019-02-12T11:17:22.112Z,2.70
2019-02-12T11:19:27.111Z,2.63
2019-02-12T11:21:31.880Z,2.43
2019-02-12T11:23:37.191Z,2.60
2019-02-12T11:25:42.139Z,2.53
2019-02-12T11:27:47.022Z,2.37
2019-02-12T11:29:51.786Z,2.47
2019-02-12T11:31:56.531Z,2.30
2019-02-12T11:34:01.411Z,2.30
2019-02-12T11:36:06.299Z,2.33
2019-02-12T11:38:11.252Z,2.57
2019-02-12T11:40:16.153Z,2.37
2019-02-12T11:42:20.942Z,2.67
2019-02-12T11:44:25.751Z,2.33
2019-02-12T11:46:30.495Z,2.40
2019-02-12T11:48:35.356Z,2.30
2019-02-12T11:50:40.232Z,2.37
2019-02-12T11:52:44.985Z,2.37
2019-02-12T11:54:49.832Z,2.87
2019-02-12T11:56:54.692Z,3.00
2019-02-12T11:58:59.512Z,2.40
2019-02-12T12:01:07.283Z,2.37
2019-02-12T12:03:12.016Z,2.30
2019-02-12T12:05:16.912Z,2.60
2019-02-12T12:07:21.864Z,2.47
2019-02-12T12:09:26.848Z,2.67
2019-02-12T12:11:31.679Z,2.20
2019-02-12T12:13:36.732Z,2.37
2019-02-12T12:15:41.596Z,2.47
2019-02-12T12:17:46.579Z,2.40
2019-02-12T12:19:51.471Z,2.33
2019-02-12T12:21:56.546Z,2.70
2019-02-12T12:24:01.351Z,2.37
2019-02-12T12:26:06.100Z,2.33
2019-02-12T12:28:10.892Z,2.43
2019-02-12T12:30:15.757Z,2.10
2019-02-12T12:32:20.618Z,2.40
2019-02-12T12:34:25.351Z,2.40
2019-02-12T12:36:30.083Z,2.40
2019-02-12T12:38:34.939Z,2.67
2019-02-12T12:40:39.697Z,2.40
2019-02-12T12:42:45.602Z,2.10
2019-02-12T12:44:52.198Z,2.40
2019-02-12T12:46:57.178Z,2.27
2019-02-12T12:49:01.950Z,2.10
2019-02-12T12:51:06.724Z,2.20
2019-02-12T12:53:11.557Z,2.33
2019-02-12T12:55:16.344Z,2.07
2019-02-12T12:57:21.255Z,2.53
2019-02-12T12:59:26.093Z,2.20
2019-02-12T13:01:30.918Z,2.50
2019-02-12T13:03:35.763Z,2.33
2019-02-12T13:05:40.701Z,2.27
2019-02-12T13:07:45.858Z,2.17
2019-02-12T13:09:50.757Z,2.27
2019-02-12T13:11:55.681Z,2.50
2019-02-12T13:14:00.611Z,2.10
2019-02-12T13:16:05.473Z,2.17
2019-02-12T13:18:10.262Z,2.30
2019-02-12T13:20:15.352Z,2.13
2019-02-12T13:22:20.198Z,2.47
2019-02-12T13:24:25.286Z,2.10
2019-02-12T13:26:30.102Z,2.03
2019-02-12T13:28:35.188Z,2.13
2019-02-12T13:30:40.029Z,2.23
2019-02-12T13:32:45.158Z,2.50
2019-02-12T13:34:50.026Z,2.03
2019-02-12T13:36:54.912Z,2.10
2019-02-12T13:38:59.747Z,2.10
2019-02-12T13:41:04.694Z,2.17
2019-02-12T13:43:09.548Z,2.20
2019-02-12T13:45:14.492Z,2.30
2019-02-12T13:47:19.512Z,2.33
2019-02-12T13:49:24.419Z,2.10
2019-02-12T13:51:29.364Z,2.23
2019-02-12T13:53:34.325Z,2.03
2019-02-12T13:55:39.439Z,2.27
2019-02-12T13:57:44.363Z,2.10
2019-02-12T13:59:49.375Z,1.93
2019-02-12T14:01:54.423Z,2.00
2019-02-12T14:03:59.163Z,2.20
2019-02-12T14:06:03.988Z,2.07
2019-02-12T14:08:08.724Z,2.03
2019-02-12T14:10:13.661Z,2.10
2019-02-12T14:12:18.540Z,2.10
2019-02-12T14:14:23.354Z,1.90
2019-02-12T14:16:28.156Z,1.97
2019-02-12T14:18:33.031Z,2.23
2019-02-12T14:20:37.794Z,1.93
2019-02-12T14:22:42.592Z,2.10
2019-02-12T14:24:48.293Z,2.20
2019-02-12T14:26:53.212Z,1.90
2019-02-12T14:28:58.113Z,2.03
2019-02-12T14:31:02.900Z,1.93
2019-02-12T14:33:07.641Z,1.90
2019-02-12T14:35:12.484Z,1.73
2019-02-12T14:37:17.214Z,2.00
2019-02-12T14:39:22.053Z,1.70
2019-02-12T14:41:26.764Z,1.70
2019-02-12T14:43:31.630Z,2.00
2019-02-12T14:45:37.383Z,2.10
2019-02-12T14:47:44.175Z,1.90
2019-02-12T14:49:49.010Z,1.80
2019-02-12T14:51:54.125Z,1.90
2019-02-12T14:54:01.122Z,1.90
2019-02-12T14:56:11.107Z,1.90
2019-02-12T14:58:12.556Z,1.90
2019-02-12T15:00:17.687Z,1.63
2019-02-12T15:02:22.445Z,1.80
2019-02-12T15:04:27.266Z,2.10
2019-02-12T15:06:32.056Z,1.70
2019-02-12T15:08:36.853Z,2.10
2019-02-12T15:10:41.653Z,1.97
2019-02-12T15:12:46.426Z,1.87
2019-02-12T15:14:52.186Z,1.77
2019-02-12T15:16:57.053Z,2.00
2019-02-12T15:19:01.899Z,2.00
2019-02-12T15:21:06.852Z,1.93
2019-02-12T15:23:11.699Z,2.00
2019-02-12T15:25:16.687Z,2.00
2019-02-12T15:27:21.446Z,2.03
2019-02-12T15:29:26.339Z,1.60
2019-02-12T15:31:31.292Z,1.87
2019-02-12T15:33:36.194Z,1.97
2019-02-12T15:35:41.177Z,1.80
2019-02-12T15:37:46.088Z,1.90
2019-02-12T15:39:51.010Z,1.80
2019-02-12T15:41:55.965Z,1.80
2019-02-12T15:44:01.163Z,1.90
2019-02-12T15:46:06.010Z,1.87
2019-02-12T15:48:10.815Z,1.63
2019-02-12T15:50:15.584Z,1.87
2019-02-12T15:52:20.606Z,1.80
2019-02-12T15:54:25.523Z,1.80
2019-02-12T15:56:30.383Z,2.03
2019-02-12T15:58:35.267Z,1.87
2019-02-12T16:00:41.464Z,1.77
2019-02-12T16:02:46.756Z,1.70
2019-02-12T16:04:55.080Z,1.50
2019-02-12T16:07:01.905Z,1.83
2019-02-12T16:09:07.292Z,1.70
2019-02-12T16:11:12.225Z,1.80
2019-02-12T16:13:17.065Z,1.70
2019-02-12T16:15:24.569Z,1.90
2019-02-12T16:17:28.389Z,1.90
2019-02-12T16:19:33.332Z,1.93
2019-02-12T16:21:38.090Z,2.00
2019-02-12T16:23:42.967Z,1.53
2019-02-12T16:25:47.826Z,1.70
2019-02-12T16:27:52.649Z,1.73
2019-02-12T16:29:59.114Z,1.57
2019-02-12T16:32:04.285Z,1.67
2019-02-12T16:34:09.306Z,1.70
2019-02-12T16:36:14.236Z,1.80
2019-02-12T16:38:19.344Z,1.73
2019-02-12T16:40:24.517Z,1.50
2019-02-12T16:42:31.066Z,1.83
2019-02-12T16:44:36.066Z,1.60
2019-02-12T16:46:41.238Z,1.67
2019-02-12T16:48:46.256Z,1.70
2019-02-12T16:50:51.288Z,1.60
2019-02-12T16:52:57.526Z,1.53
2019-02-12T16:55:03.442Z,1.70
2019-02-12T16:57:09.024Z,1.70
2019-02-12T16:59:14.013Z,2.00
2019-02-12T17:01:35.118Z,1.60
2019-02-12T17:03:40.689Z,1.77
2019-02-12T17:05:45.781Z,1.63
2019-02-12T17:07:50.799Z,1.70
2019-02-12T17:09:56.446Z,1.57
2019-02-12T17:12:04.695Z,1.47
2019-02-12T17:14:10.103Z,1.67
2019-02-12T17:16:16.047Z,1.60
2019-02-12T17:18:21.105Z,1.60
2019-02-12T17:20:26.039Z,1.70
2019-02-12T17:22:33.857Z,1.90
2019-02-12T17:24:39.190Z,1.53
2019-02-12T17:26:44.437Z,1.47
2019-02-12T17:28:50.098Z,1.60
2019-02-12T17:30:55.248Z,1.70
2019-02-12T17:33:00.422Z,1.40
2019-02-12T17:35:05.886Z,1.60
2019-02-12T17:37:27.866Z,1.80
2019-02-12T17:39:40.804Z,1.53
2019-02-12T17:41:57.069Z,1.50
2019-02-12T17:44:05.213Z,1.70
2019-02-12T17:46:10.866Z,1.50
2019-02-12T17:48:16.756Z,1.63
2019-02-12T17:50:22.585Z,1.93
2019-02-12T17:52:27.784Z,1.30
2019-02-12T17:54:34.371Z,1.83
2019-02-12T17:56:39.291Z,1.70
2019-02-12T17:58:44.533Z,1.77
2019-02-12T18:00:49.474Z,1.50
2019-02-12T18:02:54.825Z,1.90
2019-02-12T18:05:00.271Z,1.60
2019-02-12T18:07:08.206Z,1.70
2019-02-12T18:09:14.150Z,1.90
2019-02-12T18:11:19.822Z,1.53
2019-02-12T18:13:25.147Z,2.10
2019-02-12T18:15:30.913Z,1.90
2019-02-12T18:17:36.290Z,1.70
2019-02-12T18:19:42.220Z,1.97
2019-02-12T18:21:47.660Z,1.50
2019-02-12T18:23:56.388Z,1.63
2019-02-12T18:26:01.310Z,1.90
2019-02-12T18:28:06.252Z,1.73
2019-02-12T18:30:13.227Z,1.73
2019-02-12T18:32:18.216Z,1.87
2019-02-12T18:34:23.526Z,1.67
2019-02-12T18:36:28.647Z,1.90
2019-02-12T18:38:33.608Z,1.70
2019-02-12T18:40:38.612Z,1.63
2019-02-12T18:42:43.515Z,1.87
2019-02-12T18:44:48.689Z,1.90
2019-02-12T18:46:53.867Z,1.80
2019-02-12T18:48:59.426Z,1.93
2019-02-12T18:51:05.262Z,2.13
2019-02-12T18:53:10.225Z,1.50
2019-02-12T18:55:15.386Z,1.80
2019-02-12T18:57:23.699Z,1.80
2019-02-12T18:59:28.826Z,1.80
2019-02-12T19:01:33.850Z,1.97
2019-02-12T19:03:38.643Z,2.30
2019-02-12T19:05:43.780Z,2.27
2019-02-12T19:07:49.892Z,2.03
2019-02-12T19:09:54.827Z,2.10
2019-02-12T19:12:04.157Z,2.23
2019-02-12T19:14:09.114Z,2.13
2019-02-12T19:16:14.234Z,1.90
2019-02-12T19:18:22.298Z,1.87
2019-02-12T19:20:27.309Z,1.20
2019-02-12T19:22:32.138Z,1.63
2019-02-12T19:24:37.086Z,1.00
2019-02-12T19:26:49.638Z,0.90
2019-02-12T19:28:48.534Z,0.87
2019-02-12T19:30:55.149Z,0.90
2019-02-12T19:33:00.068Z,0.90
2019-02-12T19:35:07.728Z,0.80
2019-02-12T19:37:12.766Z,0.80
2019-02-12T19:40:18.862Z,0.63
2019-02-12T19:42:34.445Z,1.00
2019-02-12T19:44:40.305Z,0.60
2019-02-12T19:46:45.242Z,0.70
2019-02-12T19:48:50.558Z,0.80
2019-02-12T19:50:59.528Z,0.50
2019-02-12T19:53:06.369Z,0.80
2019-02-12T19:55:19.708Z,0.87
2019-02-12T19:57:29.253Z,1.00
2019-02-12T19:59:42.940Z,0.90
2019-02-12T20:01:56.988Z,1.10
2019-02-12T20:04:22.440Z,1.17
2019-02-12T20:06:31.327Z,1.40
2019-02-12T20:08:51.711Z,1.20
2019-02-12T20:11:50.816Z,1.70
2019-02-12T20:14:26.304Z,1.90
2019-02-12T20:17:05.008Z,1.90
2019-02-12T20:19:29.233Z,2.40
2019-02-12T20:21:38.145Z,1.90
2019-02-12T20:23:50.088Z,2.10
2019-02-12T20:25:55.418Z,2.03
2019-02-12T20:28:10.100Z,2.30
2019-02-12T20:30:22.158Z,2.23
2019-02-12T20:32:58.010Z,2.40
2019-02-12T20:35:09.980Z,2.40
2019-02-12T20:37:17.476Z,2.17
2019-02-12T20:39:23.132Z,2.90
2019-02-12T20:41:29.840Z,2.47
2019-02-12T20:43:36.407Z,2.83
2019-02-12T20:45:45.202Z,2.37
2019-02-12T20:47:54.495Z,3.00
2019-02-12T20:50:02.215Z,2.90
2019-02-12T20:52:07.675Z,3.17
2019-02-12T20:54:15.195Z,3.03
2019-02-12T20:56:21.518Z,3.27
2019-02-12T20:58:27.123Z,2.93
2019-02-12T21:00:33.142Z,2.67
2019-02-12T21:02:38.495Z,3.00
2019-02-12T21:04:43.456Z,2.83
2019-02-12T21:06:49.822Z,3.27
2019-02-12T21:08:56.297Z,3.30
2019-02-12T21:11:39.229Z,3.10
2019-02-12T21:13:52.254Z,2.90
2019-02-12T21:15:57.260Z,3.03
2019-02-12T21:18:06.794Z,3.10
2019-02-12T21:20:15.048Z,3.30
2019-02-12T21:22:22.535Z,3.37
2019-02-12T21:24:30.310Z,3.40
2019-02-12T21:26:36.056Z,3.10
2019-02-12T21:28:41.262Z,3.60
2019-02-12T21:30:50.481Z,3.27
2019-02-12T21:32:59.054Z,3.33
2019-02-12T21:35:05.523Z,3.90
2019-02-12T21:37:15.066Z,3.83
2019-02-12T21:39:24.275Z,3.67
2019-02-12T21:41:29.773Z,3.30
2019-02-12T21:43:36.954Z,3.40
2019-02-12T21:45:43.162Z,3.47
2019-02-12T21:47:51.774Z,4.10
2019-02-12T21:49:56.875Z,3.77
2019-02-12T21:52:01.822Z,3.40
2019-02-12T21:54:07.359Z,3.77
2019-02-12T21:56:14.614Z,3.83
2019-02-12T21:58:22.549Z,3.50
2019-02-12T22:00:28.758Z,4.00
2019-02-12T22:02:34.233Z,4.30
2019-02-12T22:04:39.193Z,3.33
2019-02-12T22:06:44.094Z,3.70
2019-02-12T22:08:49.134Z,3.90
2019-02-12T22:10:54.054Z,3.77
2019-02-12T22:12:59.194Z,3.80
2019-02-12T22:15:04.074Z,3.90
2019-02-12T22:17:12.550Z,4.00
2019-02-12T22:19:17.427Z,4.10
2019-02-12T22:21:22.381Z,3.80
2019-02-12T22:23:27.218Z,4.13
2019-02-12T22:25:32.042Z,3.97
2019-02-12T22:27:40.321Z,3.70
2019-02-12T22:29:43.356Z,3.63
2019-02-12T22:31:48.238Z,3.63
2019-02-12T22:33:53.189Z,4.20
2019-02-12T22:35:58.002Z,4.00
2019-02-12T22:38:02.954Z,4.00
2019-02-12T22:40:08.204Z,4.10
2019-02-12T22:42:13.013Z,4.17
2019-02-12T22:44:17.854Z,4.37
2019-02-12T22:46:22.622Z,4.43
2019-02-12T22:48:28.475Z,4.37
2019-02-12T22:50:33.254Z,4.33
2019-02-12T22:52:38.008Z,4.10
2019-02-12T22:54:42.994Z,4.37
2019-02-12T22:56:47.934Z,4.00
2019-02-12T22:58:52.738Z,3.73
2019-02-12T23:01:02.255Z,4.13
2019-02-12T23:03:07.529Z,5.03
2019-02-12T23:05:12.500Z,4.60
2019-02-12T23:07:17.305Z,4.10
2019-02-12T23:09:22.607Z,4.67
2019-02-12T23:11:27.436Z,4.60
2019-02-12T23:13:32.641Z,4.70
2019-02-12T23:15:37.526Z,4.23
2019-02-12T23:17:42.366Z,3.90
2019-02-12T23:19:47.184Z,4.50
2019-02-12T23:21:52.076Z,4.10
2019-02-12T23:23:57.018Z,3.83
2019-02-12T23:26:01.887Z,3.97
2019-02-12T23:28:06.759Z,4.73
2019-02-12T23:30:11.665Z,4.90
2019-02-12T23:32:16.566Z,4.47
2019-02-12T23:34:21.409Z,4.60
2019-02-12T23:36:26.299Z,4.27
2019-02-12T23:38:31.049Z,4.47
2019-02-12T23:40:36.146Z,4.47
2019-02-12T23:42:41.069Z,4.07
2019-02-12T23:44:46.106Z,4.17
2019-02-12T23:46:50.929Z,4.37
2019-02-12T23:48:55.741Z,4.40
2019-02-12T23:51:00.810Z,4.53
2019-02-12T23:53:05.678Z,4.70
2019-02-12T23:55:10.573Z,4.60
2019-02-12T23:57:15.304Z,4.30
2019-02-12T23:59:20.181Z,4.43
